| time (UTC) | temp C | wind direction | speed KPH | gust KPH | rain 1hr cm | rain 24hr cm | rain mn cm | humidity % | barometer mb |
| 20260507210507 | 11 | 0 | 0.0 | 3.2 | 0.13 | 2.97 | 3.00 | 99 | 1010.2 |
| 20260507210010 | 11 | 0 | 0.0 | 6.4 | 0.13 | 2.97 | 3.00 | 99 | 1010.2 |
| 20260507205507 | 11 | 0 | 0.0 | 6.4 | 0.13 | 2.97 | 3.00 | 99 | 1010.2 |
| 20260507205007 | 11 | 0 | 0.0 | 3.2 | 0.13 | 2.97 | 3.00 | 99 | 1010.1 |
| 20260507204507 | 11 | 0 | 0.0 | 3.2 | 0.13 | 2.97 | 3.00 | 99 | 1009.8 |
| 20260507204007 | 11 | 0 | 0.0 | 6.4 | 0.13 | 2.97 | 3.00 | 99 | 1009.6 |
| 20260507203507 | 11 | 0 | 0.0 | 6.4 | 0.13 | 2.97 | 3.00 | 99 | 1009.4 |
| 20260507202507 | 11 | 0 | 0.0 | 6.4 | 0.00 | 2.90 | 2.90 | 99 | 1009.7 |
| 20260507201007 | 11 | 0 | 0.0 | 6.4 | 0.18 | 2.90 | 2.90 | 99 | 1009.6 |
| 20260507200010 | 11 | 0 | 0.0 | 9.7 | 0.18 | 2.90 | 2.90 | 99 | 1009.6 |
| 20260507195007 | 11 | 0 | 0.0 | 12.9 | 0.18 | 2.90 | 2.90 | 99 | 1009.4 |
| 20260507194507 | 11 | 0 | 0.0 | 12.9 | 0.18 | 2.90 | 2.90 | 99 | 1009.4 |
| 20260507194007 | 11 | 0 | 0.0 | 6.4 | 0.18 | 2.90 | 2.90 | 99 | 1009.6 |
| 20260507192007 | 12 | 0 | 0.0 | 6.4 | 0.18 | 2.90 | 2.90 | 99 | 1009.9 |
| 20260507191508 | 12 | 0 | 0.0 | 6.4 | 0.18 | 2.90 | 2.90 | 99 | 1010.2 |
| 20260507191007 | 12 | 0 | 0.0 | 6.4 | 0.03 | 2.69 | 2.69 | 99 | 1010.3 |
| 20260507190507 | 12 | 0 | 0.0 | 12.9 | 0.03 | 2.69 | 2.69 | 99 | 1010.6 |
| 20260507190011 | 12 | 0 | 0.0 | 12.9 | 0.03 | 2.69 | 2.69 | 99 | 1010.3 |
| 20260507185507 | 12 | 31 | 3.2 | 9.7 | 0.03 | 2.69 | 2.69 | 99 | 1010.6 |
| 20260507185007 | 12 | 0 | 0.0 | 9.7 | 0.05 | 2.69 | 2.69 | 99 | 1010.8 |
| 20260507184008 | 12 | 0 | 0.0 | 12.9 | 0.05 | 2.69 | 2.69 | 99 | 1010.6 |
| 20260507183507 | 12 | 17 | 3.2 | 9.7 | 0.13 | 2.69 | 2.69 | 99 | 1010.5 |
| 20260507183008 | 12 | 0 | 0.0 | 9.7 | 0.13 | 2.69 | 2.69 | 99 | 1010.3 |
| 20260507182507 | 12 | 0 | 0.0 | 12.9 | 0.13 | 2.69 | 2.69 | 99 | 1010.0 |
| 20260507182007 | 12 | 0 | 0.0 | 12.9 | 0.13 | 2.69 | 2.69 | 99 | 1009.7 |
| 20260507181507 | 12 | 0 | 0.0 | 12.9 | 0.15 | 2.69 | 2.69 | 99 | 1010.3 |
| 20260507181007 | 12 | 0 | 0.0 | 12.9 | 0.13 | 2.67 | 2.67 | 99 | 1010.1 |
| 20260507180010 | 12 | 0 | 0.0 | 9.7 | 0.13 | 2.67 | 2.67 | 99 | 1010.8 |
| 20260507175507 | 12 | 0 | 0.0 | 9.7 | 0.13 | 2.67 | 2.67 | 99 | 1011.1 |
| 20260507175007 | 12 | 0 | 0.0 | 9.7 | 0.05 | 2.64 | 2.62 | 99 | 1011.2 |
| 20260507174507 | 12 | 0 | 0.0 | 9.7 | 0.05 | 2.64 | 2.62 | 99 | 1011.5 |
| 20260507174007 | 12 | 0 | 0.0 | 9.7 | 0.13 | 2.64 | 2.62 | 99 | 1011.4 |
| 20260507173507 | 12 | 0 | 0.0 | 9.7 | 0.05 | 2.57 | 2.59 | 99 | 1011.3 |
| 20260507173008 | 12 | 0 | 0.0 | 6.4 | 0.05 | 2.57 | 2.59 | 99 | 1011.4 |
| 20260507172507 | 12 | 0 | 0.0 | 6.4 | 0.13 | 2.57 | 2.59 | 99 | 1011.6 |
| 20260507171507 | 12 | 0 | 0.0 | 9.7 | 0.18 | 2.54 | 2.54 | 99 | 1011.9 |
| 20260507170507 | 12 | 0 | 0.0 | 6.4 | 0.36 | 2.54 | 2.54 | 99 | 1011.7 |
| 20260507165507 | 12 | 0 | 0.0 | 9.7 | 0.61 | 2.54 | 2.54 | 99 | 1011.5 |
| 20260507165007 | 12 | 23 | 3.2 | 9.7 | 0.66 | 2.54 | 2.54 | 99 | 1011.5 |
| 20260507164507 | 12 | 0 | 0.0 | 12.9 | 0.76 | 2.54 | 2.54 | 99 | 1011.6 |
| 20260507163007 | 12 | 0 | 0.0 | 6.4 | 0.81 | 2.46 | 2.46 | 99 | 1011.7 |
| 20260507162507 | 11 | 0 | 0.0 | 16.1 | 0.89 | 2.46 | 2.46 | 99 | 1011.9 |
| 20260507162007 | 11 | 0 | 0.0 | 16.1 | 0.89 | 2.41 | 2.39 | 99 | 1011.4 |
| 20260507161007 | 12 | 0 | 0.0 | 12.9 | 0.86 | 2.29 | 2.29 | 100 | 1011.3 |
| 20260507160507 | 12 | 0 | 0.0 | 12.9 | 0.89 | 2.24 | 2.21 | 99 | 1011.1 |
| 20260507160011 | 12 | 0 | 0.0 | 9.7 | 0.81 | 2.06 | 2.06 | 100 | 1011.2 |
| 20260507155507 | 12 | 0 | 0.0 | 9.7 | 0.76 | 1.93 | 1.96 | 100 | 1011.8 |
| 20260507155007 | 12 | 0 | 0.0 | 9.7 | 0.66 | 1.88 | 1.88 | 100 | 1011.8 |
| 20260507154008 | 12 | 0 | 0.0 | 12.9 | 0.58 | 1.78 | 1.75 | 100 | 1011.8 |
| 20260507153507 | 12 | 0 | 0.0 | 12.9 | 0.53 | 1.73 | 1.73 | 100 | 1011.8 |
| 20260507152507 | 12 | 0 | 0.0 | 16.1 | 0.36 | 1.52 | 1.55 | 97 | 1012.1 |
| 20260507152007 | 13 | 0 | 0.0 | 16.1 | 0.28 | 1.50 | 1.50 | 97 | 1012.0 |
| 20260507151506 | 13 | 0 | 0.0 | 16.1 | 0.23 | 1.42 | 1.42 | 100 | 1011.8 |
| 20260507151007 | 13 | 0 | 0.0 | 16.1 | 0.18 | 1.40 | 1.40 | 100 | 1011.7 |
| 20260507150507 | 13 | 0 | 0.0 | 16.1 | 0.05 | 1.27 | 1.27 | 100 | 1011.7 |
| 20260507145507 | 13 | 0 | 0.0 | 9.7 | 0.00 | 1.19 | 1.19 | 100 | 1011.8 |
| 20260507145007 | 14 | 0 | 0.0 | 9.7 | 0.05 | 1.19 | 1.19 | 100 | 1011.7 |
| 20260507144507 | 14 | 0 | 0.0 | 9.7 | 0.05 | 1.19 | 1.19 | 100 | 1011.6 |
| 20260507144007 | 14 | 0 | 0.0 | 9.7 | 0.05 | 1.19 | 1.19 | 100 | 1011.6 |
| 20260507143507 | 15 | 0 | 0.0 | 9.7 | 0.05 | 1.19 | 1.19 | 97 | 1011.4 |
| 20260507142507 | 15 | 0 | 0.0 | 9.7 | 0.13 | 1.19 | 1.19 | 100 | 1011.3 |
| 20260507142007 | 15 | 0 | 0.0 | 9.7 | 0.13 | 1.19 | 1.19 | 100 | 1011.1 |
| 20260507141007 | 15 | 0 | 0.0 | 6.4 | 0.18 | 1.19 | 1.19 | 100 | 1011.3 |
| 20260507140507 | 15 | 0 | 0.0 | 3.2 | 0.18 | 1.19 | 1.19 | 100 | 1011.2 |
| 20260507140010 | 16 | 0 | 0.0 | 3.2 | 0.18 | 1.19 | 1.19 | 100 | 1011.2 |
| 20260507135007 | 16 | 0 | 0.0 | 6.4 | 0.15 | 1.12 | 1.12 | 100 | 1011.1 |
| 20260507134507 | 16 | 0 | 0.0 | 6.4 | 0.15 | 1.12 | 1.12 | 100 | 1011.1 |
| 20260507134007 | 16 | 0 | 0.0 | 3.2 | 0.15 | 1.12 | 1.12 | 100 | 1011.1 |
| 20260507133507 | 16 | 0 | 0.0 | 9.7 | 0.15 | 1.12 | 1.12 | 100 | 1011.0 |
| 20260507133007 | 16 | 0 | 0.0 | 9.7 | 0.15 | 1.09 | 1.09 | 100 | 1011.1 |
| 20260507132007 | 16 | 0 | 0.0 | 9.7 | 0.18 | 1.09 | 1.09 | 100 | 1011.0 |
| 20260507131507 | 16 | 0 | 0.0 | 12.9 | 0.25 | 1.04 | 1.04 | 100 | 1010.9 |
| 20260507131007 | 16 | 0 | 0.0 | 12.9 | 0.25 | 1.02 | 1.02 | 100 | 1011.3 |
| 20260507130010 | 17 | 0 | 0.0 | 6.4 | 0.36 | 1.02 | 1.02 | 97 | 1011.3 |
| 20260507125507 | 17 | 0 | 0.0 | 9.7 | 0.28 | 0.99 | 0.97 | 97 | 1011.2 |
| 20260507125006 | 17 | 0 | 0.0 | 9.7 | 0.38 | 0.99 | 0.97 | 97 | 1011.1 |
| 20260507124506 | 17 | 0 | 0.0 | 9.7 | 0.43 | 0.99 | 0.97 | 97 | 1011.2 |
| 20260507124006 | 17 | 0 | 0.0 | 9.7 | 0.48 | 0.99 | 0.97 | 97 | 1011.0 |
| 20260507123506 | 17 | 0 | 0.0 | 9.7 | 0.48 | 0.99 | 0.97 | 96 | 1011.0 |
| 20260507123008 | 17 | 0 | 0.0 | 9.7 | 0.43 | 0.97 | 0.94 | 96 | 1011.1 |
| 20260507122506 | 17 | 0 | 0.0 | 9.7 | 0.61 | 0.89 | 0.89 | 96 | 1011.6 |
| 20260507121507 | 18 | 355 | 3.2 | 12.9 | 0.53 | 0.79 | 0.79 | 96 | 1011.2 |
| 20260507120506 | 19 | 345 | 3.2 | 16.1 | 0.48 | 0.71 | 0.71 | 97 | 1011.0 |
| 20260507120010 | 19 | 0 | 0.0 | 6.4 | 0.43 | 0.66 | 0.69 | 97 | 1010.7 |
| 20260507115507 | 19 | 0 | 0.0 | 3.2 | 0.43 | 0.66 | 0.69 | 97 | 1010.8 |
| 20260507115007 | 19 | 0 | 0.0 | 3.2 | 0.41 | 0.61 | 0.61 | 97 | 1010.7 |
| 20260507114507 | 20 | 0 | 0.0 | 3.2 | 0.43 | 0.53 | 0.53 | 97 | 1010.8 |
| 20260507114007 | 20 | 0 | 0.0 | 0.0 | 0.43 | 0.48 | 0.48 | 96 | 1010.6 |
| 20260507113506 | 20 | 0 | 0.0 | 0.0 | 0.48 | 0.48 | 0.48 | 96 | 1010.5 |
| 20260507111507 | 20 | 0 | 0.0 | 0.0 | 0.25 | 0.25 | 0.25 | 94 | 1010.5 |
| 20260507110507 | 20 | 0 | 0.0 | 0.0 | 0.23 | 0.23 | 0.23 | 94 | 1010.5 |
| 20260507105507 | 20 | 0 | 0.0 | 6.4 | 0.23 | 0.23 | 0.23 | 92 | 1010.7 |
| 20260507105006 | 20 | 0 | 0.0 | 6.4 | 0.18 | 0.18 | 0.18 | 92 | 1010.6 |
| 20260507104507 | 20 | 0 | 0.0 | 6.4 | 0.05 | 0.05 | 0.08 | 91 | 1010.5 |
| 20260507104006 | 20 | 0 | 0.0 | 6.4 | 0.00 | 0.00 | 0.00 | 90 | 1010.5 |
| 20260507103008 | 20 | 0 | 0.0 | 6.4 | 0.00 | 0.00 | 0.00 | 88 | 1010.3 |
| 20260507102507 | 20 | 0 | 0.0 | 6.4 | 0.00 | 0.00 | 0.00 | 88 | 1010.1 |
| 20260507102007 | 21 | 0 | 0.0 | 6.4 | 0.00 | 0.00 | 0.00 | 87 | 1010.0 |
| 20260507101507 | 21 | 0 | 0.0 | 12.9 | 0.00 | 0.00 | 0.00 | 86 | 1009.8 |
| 20260507101007 | 21 | 0 | 0.0 | 12.9 | 0.00 | 0.00 | 0.00 | 86 | 1009.7 |
| 20260507100506 | 21 | 228 | 3.2 | 9.7 | 0.00 | 0.00 | 0.00 | 86 | 1009.7 |
| 20260507100009 | 21 | 0 | 0.0 | 9.7 | 0.00 | 0.00 | 0.00 | 85 | 1009.6 |
| 20260507095507 | 21 | 215 | 3.2 | 6.4 | 0.00 | 0.00 | 0.00 | 85 | 1009.7 |
| 20260507095007 | 21 | 0 | 0.0 | 9.7 | 0.00 | 0.00 | 0.00 | 85 | 1009.6 |
| 20260507094507 | 21 | 0 | 0.0 | 9.7 | 0.00 | 0.00 | 0.00 | 85 | 1009.5 |
| 20260507094006 | 21 | 0 | 0.0 | 9.7 | 0.00 | 0.00 | 0.00 | 85 | 1009.4 |
| 20260507093008 | 21 | 0 | 0.0 | 6.4 | 0.00 | 0.00 | 0.00 | 85 | 1009.4 |
| 20260507092507 | 21 | 0 | 0.0 | 12.9 | 0.00 | 0.00 | 0.00 | 85 | 1009.3 |
| 20260507092006 | 21 | 0 | 0.0 | 12.9 | 0.00 | 0.00 | 0.00 | 84 | 1009.7 |
| 20260507091507 | 21 | 0 | 0.0 | 6.4 | 0.00 | 0.00 | 0.00 | 84 | 1009.6 |
| 20260507090507 | 21 | 263 | 3.2 | 16.1 | 0.00 | 0.00 | 0.00 | 84 | 1009.8 |
| 20260507090010 | 21 | 0 | 0.0 | 12.9 | 0.00 | 0.00 | 0.00 | 84 | 1009.8 |
| 20260507085506 | 21 | 204 | 3.2 | 9.7 | 0.00 | 0.00 | 0.00 | 84 | 1009.7 |
| 20260507085007 | 21 | 0 | 0.0 | 6.4 | 0.00 | 0.00 | 0.00 | 84 | 1009.9 |
| 20260507084507 | 21 | 0 | 0.0 | 6.4 | 0.00 | 0.00 | 0.00 | 83 | 1009.8 |
| 20260507084006 | 21 | 0 | 0.0 | 6.4 | 0.00 | 0.00 | 0.00 | 83 | 1009.9 |
| 20260507083507 | 21 | 0 | 0.0 | 6.4 | 0.00 | 0.00 | 0.00 | 83 | 1010.1 |
| 20260507083008 | 21 | 0 | 0.0 | 6.4 | 0.00 | 0.00 | 0.00 | 83 | 1010.1 |
| 20260507082507 | 21 | 0 | 0.0 | 6.4 | 0.00 | 0.00 | 0.00 | 83 | 1010.1 |
| 20260507082006 | 21 | 0 | 0.0 | 12.9 | 0.00 | 0.00 | 0.00 | 83 | 1010.2 |
| 20260507081507 | 21 | 0 | 0.0 | 12.9 | 0.00 | 0.00 | 0.00 | 83 | 1010.3 |
| 20260507081007 | 21 | 259 | 3.2 | 12.9 | 0.00 | 0.00 | 0.00 | 83 | 1010.3 |
| 20260507075507 | 21 | 0 | 0.0 | 3.2 | 0.00 | 0.00 | 0.00 | 83 | 1010.5 |
| 20260507075007 | 21 | 0 | 0.0 | 6.4 | 0.00 | 0.00 | 0.00 | 83 | 1010.4 |
| 20260507074007 | 21 | 0 | 0.0 | 9.7 | 0.00 | 0.00 | 0.00 | 83 | 1010.3 |
| 20260507073507 | 21 | 0 | 0.0 | 12.9 | 0.00 | 0.00 | 0.00 | 83 | 1010.4 |
| 20260507073007 | 21 | 242 | 3.2 | 12.9 | 0.00 | 0.00 | 0.00 | 82 | 1010.4 |
| 20260507072507 | 21 | 0 | 0.0 | 12.9 | 0.00 | 0.00 | 0.00 | 82 | 1010.3 |
| 20260507071507 | 21 | 0 | 0.0 | 6.4 | 0.00 | 0.00 | 0.00 | 82 | 1010.0 |
| 20260507071007 | 21 | 215 | 3.2 | 6.4 | 0.00 | 0.00 | 0.00 | 82 | 1010.3 |
| 20260507070507 | 21 | 0 | 0.0 | 6.4 | 0.00 | 0.00 | 0.00 | 82 | 1010.2 |
| 20260507070012 | 21 | 0 | 0.0 | 3.2 | 0.00 | 0.00 | 0.00 | 81 | 1010.0 |
| 20260507065506 | 21 | 0 | 0.0 | 6.4 | 0.00 | 0.00 | 0.00 | 81 | 1009.8 |
| 20260507065006 | 21 | 0 | 0.0 | 6.4 | 0.00 | 0.00 | 0.00 | 80 | 1009.7 |
| 20260507064506 | 21 | 0 | 0.0 | 9.7 | 0.00 | 0.00 | 0.00 | 80 | 1009.5 |
| 20260507063507 | 21 | 0 | 0.0 | 6.4 | 0.00 | 0.00 | 0.00 | 79 | 1009.4 |
| 20260507063007 | 21 | 0 | 0.0 | 9.7 | 0.00 | 0.00 | 0.00 | 79 | 1010.1 |
| 20260507062507 | 21 | 0 | 0.0 | 9.7 | 0.00 | 0.00 | 0.00 | 78 | 1010.4 |
| 20260507062007 | 21 | 0 | 0.0 | 6.4 | 0.00 | 0.00 | 0.00 | 78 | 1010.8 |
| 20260507061507 | 21 | 0 | 0.0 | 6.4 | 0.00 | 0.00 | 0.00 | 77 | 1010.9 |
| 20260507060506 | 21 | 0 | 0.0 | 6.4 | 0.00 | 0.00 | 0.00 | 75 | 1011.1 |
| 20260507060010 | 21 | 0 | 0.0 | 6.4 | 0.00 | 0.00 | 0.00 | 74 | 1011.3 |
| 20260507055006 | 22 | 0 | 0.0 | 9.7 | 0.00 | 0.00 | 0.00 | 72 | 1011.1 |
| 20260507054007 | 22 | 0 | 0.0 | 9.7 | 0.00 | 0.00 | 0.00 | 71 | 1011.2 |
| 20260507053507 | 22 | 0 | 0.0 | 12.9 | 0.00 | 0.00 | 0.00 | 70 | 1011.2 |
| 20260507052507 | 22 | 193 | 3.2 | 9.7 | 0.00 | 0.00 | 0.00 | 68 | 1011.3 |
| 20260507052007 | 22 | 0 | 0.0 | 6.4 | 0.00 | 0.00 | 0.00 | 68 | 1011.3 |
| 20260507051507 | 22 | 0 | 0.0 | 6.4 | 0.00 | 0.00 | 0.00 | 67 | 1011.1 |
| 20260507051007 | 22 | 0 | 0.0 | 9.7 | 0.00 | 0.00 | 0.00 | 66 | 1011.1 |
| 20260507050506 | 22 | 0 | 0.0 | 9.7 | 0.00 | 0.00 | 0.00 | 66 | 1011.2 |
| 20260507050009 | 22 | 0 | 0.0 | 9.7 | 0.00 | 0.00 | 0.00 | 66 | 1011.0 |
| 20260507045507 | 22 | 192 | 3.2 | 9.7 | 0.00 | 0.00 | 0.00 | 65 | 1010.9 |
| 20260507044506 | 22 | 0 | 0.0 | 12.9 | 0.00 | 0.00 | 0.00 | 65 | 1011.0 |
| 20260507044007 | 22 | 0 | 0.0 | 12.9 | 0.00 | 0.00 | 0.00 | 64 | 1011.2 |
| 20260507043507 | 22 | 284 | 3.2 | 12.9 | 0.00 | 0.00 | 0.00 | 64 | 1011.2 |
| 20260507043007 | 23 | 0 | 0.0 | 12.9 | 0.00 | 0.00 | 0.00 | 64 | 1011.2 |
| 20260507042507 | 23 | 0 | 0.0 | 12.9 | 0.00 | 0.00 | 0.00 | 63 | 1011.3 |
| 20260507042006 | 23 | 0 | 0.0 | 12.9 | 0.00 | 0.00 | 0.00 | 63 | 1011.1 |
| 20260507041507 | 23 | 0 | 0.0 | 12.9 | 0.00 | 0.00 | 0.00 | 63 | 1011.2 |
| 20260507041007 | 23 | 0 | 0.0 | 12.9 | 0.00 | 0.00 | 0.00 | 63 | 1011.0 |
| 20260507040507 | 23 | 0 | 0.0 | 16.1 | 0.00 | 0.00 | 0.00 | 63 | 1010.9 |
| 20260507035507 | 23 | 207 | 3.2 | 9.7 | 0.00 | 0.00 | 0.00 | 63 | 1010.7 |
| 20260507035006 | 23 | 0 | 0.0 | 9.7 | 0.00 | 0.00 | 0.00 | 63 | 1010.7 |
| 20260507034006 | 23 | 0 | 0.0 | 9.7 | 0.00 | 0.00 | 0.00 | 63 | 1010.8 |
| 20260507033008 | 23 | 182 | 3.2 | 12.9 | 0.00 | 0.00 | 0.00 | 63 | 1010.6 |
| 20260507032507 | 23 | 0 | 0.0 | 9.7 | 0.00 | 0.00 | 0.00 | 63 | 1010.5 |
| 20260507032006 | 23 | 0 | 0.0 | 16.1 | 0.00 | 0.00 | 0.00 | 63 | 1010.7 |
| 20260507031507 | 23 | 0 | 0.0 | 16.1 | 0.00 | 0.00 | 0.00 | 64 | 1010.8 |
| 20260507031006 | 23 | 0 | 0.0 | 12.9 | 0.00 | 0.00 | 0.00 | 64 | 1011.0 |
| 20260507030507 | 23 | 0 | 0.0 | 12.9 | 0.00 | 0.00 | 0.00 | 65 | 1010.9 |
| 20260507030010 | 23 | 0 | 0.0 | 12.9 | 0.00 | 0.00 | 0.00 | 65 | 1010.8 |
| 20260507025507 | 23 | 0 | 0.0 | 9.7 | 0.00 | 0.00 | 0.00 | 65 | 1011.0 |
| 20260507024507 | 24 | 0 | 0.0 | 9.7 | 0.00 | 0.00 | 0.00 | 65 | 1010.8 |
| 20260507024007 | 24 | 0 | 0.0 | 6.4 | 0.00 | 0.00 | 0.00 | 64 | 1010.9 |
| 20260507023007 | 24 | 0 | 0.0 | 6.4 | 0.00 | 0.00 | 0.00 | 64 | 1011.1 |
| 20260507022507 | 24 | 0 | 0.0 | 6.4 | 0.00 | 0.00 | 0.00 | 65 | 1011.2 |
| 20260507022007 | 24 | 0 | 0.0 | 12.9 | 0.00 | 0.00 | 0.00 | 65 | 1011.0 |
| 20260507021506 | 24 | 0 | 0.0 | 12.9 | 0.00 | 0.00 | 0.00 | 65 | 1011.0 |
| 20260507021007 | 25 | 0 | 0.0 | 6.4 | 0.00 | 0.00 | 0.00 | 65 | 1011.1 |
| 20260507020506 | 25 | 0 | 0.0 | 12.9 | 0.00 | 0.00 | 0.00 | 65 | 1011.2 |
| 20260507015507 | 25 | 0 | 0.0 | 9.7 | 0.00 | 0.00 | 0.00 | 65 | 1011.4 |
| 20260507015007 | 25 | 209 | 3.2 | 9.7 | 0.00 | 0.00 | 0.00 | 65 | 1011.3 |
| 20260507014507 | 25 | 0 | 0.0 | 9.7 | 0.00 | 0.00 | 0.00 | 65 | 1011.2 |
| 20260507014007 | 25 | 0 | 0.0 | 9.7 | 0.00 | 0.00 | 0.00 | 65 | 1011.2 |
| 20260507013506 | 25 | 0 | 0.0 | 6.4 | 0.00 | 0.00 | 0.00 | 66 | 1011.2 |
| 20260507013007 | 25 | 0 | 0.0 | 16.1 | 0.00 | 0.00 | 0.00 | 66 | 1011.3 |
| 20260507012507 | 25 | 0 | 0.0 | 16.1 | 0.00 | 0.00 | 0.00 | 66 | 1011.3 |
| 20260507012006 | 25 | 0 | 0.0 | 9.7 | 0.00 | 0.00 | 0.00 | 66 | 1011.3 |
| 20260507011007 | 25 | 0 | 0.0 | 12.9 | 0.00 | 0.00 | 0.00 | 66 | 1011.3 |
| 20260507010507 | 25 | 0 | 0.0 | 9.7 | 0.00 | 0.00 | 0.00 | 66 | 1011.2 |
| 20260507010010 | 25 | 0 | 0.0 | 6.4 | 0.00 | 0.00 | 0.00 | 66 | 1011.3 |
| 20260507005006 | 25 | 0 | 0.0 | 9.7 | 0.00 | 0.00 | 0.00 | 66 | 1011.3 |
| 20260507004506 | 25 | 0 | 0.0 | 12.9 | 0.00 | 0.00 | 0.00 | 66 | 1011.3 |
| 20260507003506 | 25 | 0 | 0.0 | 0.0 | 0.00 | 0.00 | 0.00 | 65 | 1011.0 |
| 20260507003007 | 25 | 0 | 0.0 | 6.4 | 0.00 | 0.00 | 0.00 | 65 | 1011.1 |
| 20260507002007 | 25 | 0 | 0.0 | 9.7 | 0.00 | 0.00 | 0.00 | 64 | 1011.0 |
| 20260507001507 | 25 | 0 | 0.0 | 0.0 | 0.00 | 0.00 | 0.00 | 64 | 1010.8 |
| 20260507001007 | 25 | 0 | 0.0 | 0.0 | 0.00 | 0.00 | 0.00 | 63 | 1010.8 |
| 20260507000010 | 25 | 0 | 0.0 | 3.2 | 0.00 | 0.00 | 0.00 | 63 | 1010.8 |
| 20260506235007 | 26 | 0 | 0.0 | 12.9 | 0.00 | 0.00 | 0.00 | 62 | 1010.8 |
| 20260506234506 | 26 | 0 | 0.0 | 9.7 | 0.00 | 0.00 | 0.00 | 61 | 1010.5 |
| 20260506234007 | 26 | 0 | 0.0 | 9.7 | 0.00 | 0.00 | 0.00 | 60 | 1010.5 |
| 20260506233506 | 26 | 0 | 0.0 | 6.4 | 0.00 | 0.00 | 0.00 | 60 | 1010.5 |
| 20260506233007 | 26 | 0 | 0.0 | 6.4 | 0.00 | 0.00 | 0.00 | 59 | 1010.5 |
| 20260506232507 | 26 | 0 | 0.0 | 0.0 | 0.00 | 0.00 | 0.00 | 59 | 1010.4 |
| 20260506232006 | 26 | 0 | 0.0 | 0.0 | 0.00 | 0.00 | 0.00 | 58 | 1010.4 |
| 20260506231006 | 26 | 0 | 0.0 | 0.0 | 0.00 | 0.00 | 0.00 | 57 | 1010.5 |
| 20260506230507 | 26 | 0 | 0.0 | 0.0 | 0.00 | 0.00 | 0.00 | 57 | 1010.5 |
| 20260506225007 | 26 | 0 | 0.0 | 9.7 | 0.00 | 0.00 | 0.00 | 56 | 1010.3 |
| 20260506224506 | 26 | 0 | 0.0 | 9.7 | 0.00 | 0.00 | 0.00 | 56 | 1010.3 |
| 20260506224007 | 26 | 0 | 0.0 | 6.4 | 0.00 | 0.00 | 0.00 | 56 | 1010.4 |
| 20260506223007 | 26 | 0 | 0.0 | 0.0 | 0.00 | 0.00 | 0.00 | 56 | 1010.2 |
| 20260506222506 | 26 | 0 | 0.0 | 16.1 | 0.00 | 0.00 | 0.00 | 56 | 1010.4 |
| 20260506222007 | 26 | 0 | 0.0 | 16.1 | 0.00 | 0.00 | 0.00 | 56 | 1010.3 |
| 20260506221006 | 26 | 0 | 0.0 | 6.4 | 0.00 | 0.00 | 0.00 | 56 | 1010.3 |
| 20260506220507 | 26 | 0 | 0.0 | 6.4 | 0.00 | 0.00 | 0.00 | 56 | 1010.3 |
| 20260506220009 | 26 | 0 | 0.0 | 17.7 | 0.00 | 0.00 | 0.00 | 56 | 1010.5 |
| 20260506215507 | 26 | 0 | 0.0 | 17.7 | 0.00 | 0.00 | 0.00 | 56 | 1010.4 |
| 20260506215007 | 26 | 0 | 0.0 | 17.7 | 0.00 | 0.00 | 0.00 | 56 | 1010.3 |
| 20260506214006 | 26 | 0 | 0.0 | 9.7 | 0.00 | 0.00 | 0.00 | 55 | 1010.0 |
| 20260506213507 | 26 | 0 | 0.0 | 16.1 | 0.00 | 0.00 | 0.00 | 55 | 1010.0 |
| 20260506213007 | 26 | 0 | 0.0 | 16.1 | 0.00 | 0.00 | 0.00 | 55 | 1010.1 |
| 20260506212507 | 26 | 0 | 0.0 | 17.7 | 0.00 | 0.00 | 0.00 | 54 | 1010.1 |
| 20260506212007 | 26 | 0 | 0.0 | 17.7 | 0.00 | 0.00 | 0.00 | 54 | 1010.2 |
| 20260506211506 | 26 | 0 | 0.0 | 17.7 | 0.00 | 0.00 | 0.00 | 54 | 1010.4 |
| 20260506211007 | 26 | 0 | 0.0 | 17.7 | 0.00 | 0.00 | 0.00 | 54 | 1010.3 |